sensor_id;sensor_type;location;lat;lon;timestamp;temperature;humidity
13229;DHT22;6680;53.220;10.402;2022-08-30T00:01:32;15.20;99.90
13229;DHT22;6680;53.220;10.402;2022-08-30T00:03:59;15.10;99.90
13229;DHT22;6680;53.220;10.402;2022-08-30T00:06:27;15.10;99.90
13229;DHT22;6680;53.220;10.402;2022-08-30T00:08:55;15.10;99.90
13229;DHT22;6680;53.220;10.402;2022-08-30T00:11:26;15.10;99.90
13229;DHT22;6680;53.220;10.402;2022-08-30T00:13:55;15.10;99.90
13229;DHT22;6680;53.220;10.402;2022-08-30T00:16:22;15.10;99.90
13229;DHT22;6680;53.220;10.402;2022-08-30T00:18:50;15.10;99.90
13229;DHT22;6680;53.220;10.402;2022-08-30T00:21:17;15.20;99.90
13229;DHT22;6680;53.220;10.402;2022-08-30T00:23:44;15.20;99.90
13229;DHT22;6680;53.220;10.402;2022-08-30T00:26:11;15.20;99.90
13229;DHT22;6680;53.220;10.402;2022-08-30T00:28:38;15.30;99.90
13229;DHT22;6680;53.220;10.402;2022-08-30T00:31:06;15.30;99.90
13229;DHT22;6680;53.220;10.402;2022-08-30T00:33:33;15.30;99.90
13229;DHT22;6680;53.220;10.402;2022-08-30T00:35:59;15.30;99.90
13229;DHT22;6680;53.220;10.402;2022-08-30T00:38:26;15.30;99.90
13229;DHT22;6680;53.220;10.402;2022-08-30T00:40:53;15.30;99.90
13229;DHT22;6680;53.220;10.402;2022-08-30T00:43:23;15.30;99.90
13229;DHT22;6680;53.220;10.402;2022-08-30T00:45:51;15.30;99.90
13229;DHT22;6680;53.220;10.402;2022-08-30T00:48:19;15.30;99.90
13229;DHT22;6680;53.220;10.402;2022-08-30T00:50:48;15.40;99.90
13229;DHT22;6680;53.220;10.402;2022-08-30T00:53:21;15.40;99.90
13229;DHT22;6680;53.220;10.402;2022-08-30T00:55:49;15.40;99.90
13229;DHT22;6680;53.220;10.402;2022-08-30T00:58:19;15.50;99.90
13229;DHT22;6680;53.220;10.402;2022-08-30T01:00:48;15.50;99.90
13229;DHT22;6680;53.220;10.402;2022-08-30T01:03:16;15.50;99.90
13229;DHT22;6680;53.220;10.402;2022-08-30T01:05:44;15.60;99.90
13229;DHT22;6680;53.220;10.402;2022-08-30T01:08:11;15.60;99.90
13229;DHT22;6680;53.220;10.402;2022-08-30T01:10:40;15.60;99.90
13229;DHT22;6680;53.220;10.402;2022-08-30T01:13:07;15.60;99.90
13229;DHT22;6680;53.220;10.402;2022-08-30T01:15:35;15.60;99.90
13229;DHT22;6680;53.220;10.402;2022-08-30T01:18:02;15.60;99.90
13229;DHT22;6680;53.220;10.402;2022-08-30T01:20:34;15.60;99.90
13229;DHT22;6680;53.220;10.402;2022-08-30T01:23:10;15.60;99.90
13229;DHT22;6680;53.220;10.402;2022-08-30T01:25:38;15.60;99.90
13229;DHT22;6680;53.220;10.402;2022-08-30T01:28:09;15.60;99.90
13229;DHT22;6680;53.220;10.402;2022-08-30T01:30:37;15.60;99.90
13229;DHT22;6680;53.220;10.402;2022-08-30T01:33:05;15.50;99.90
13229;DHT22;6680;53.220;10.402;2022-08-30T01:35:34;15.50;99.90
13229;DHT22;6680;53.220;10.402;2022-08-30T01:38:03;15.50;99.90
13229;DHT22;6680;53.220;10.402;2022-08-30T01:40:31;15.50;99.90
13229;DHT22;6680;53.220;10.402;2022-08-30T01:42:58;15.60;99.90
13229;DHT22;6680;53.220;10.402;2022-08-30T01:45:24;15.60;99.90
13229;DHT22;6680;53.220;10.402;2022-08-30T01:47:51;15.60;99.90
13229;DHT22;6680;53.220;10.402;2022-08-30T01:50:18;15.60;99.90
13229;DHT22;6680;53.220;10.402;2022-08-30T01:52:44;15.60;99.90
13229;DHT22;6680;53.220;10.402;2022-08-30T01:55:11;15.60;99.90
13229;DHT22;6680;53.220;10.402;2022-08-30T01:57:39;15.60;99.90
13229;DHT22;6680;53.220;10.402;2022-08-30T02:00:08;15.70;99.90
13229;DHT22;6680;53.220;10.402;2022-08-30T02:02:35;15.70;99.90
13229;DHT22;6680;53.220;10.402;2022-08-30T02:05:04;15.70;99.90
13229;DHT22;6680;53.220;10.402;2022-08-30T02:07:31;15.70;99.90
13229;DHT22;6680;53.220;10.402;2022-08-30T02:09:58;15.70;99.90
13229;DHT22;6680;53.220;10.402;2022-08-30T02:12:24;15.70;99.90
13229;DHT22;6680;53.220;10.402;2022-08-30T02:14:53;15.70;99.90
13229;DHT22;6680;53.220;10.402;2022-08-30T02:17:20;15.70;99.90
13229;DHT22;6680;53.220;10.402;2022-08-30T02:19:46;15.70;99.90
13229;DHT22;6680;53.220;10.402;2022-08-30T02:22:13;15.70;99.90
13229;DHT22;6680;53.220;10.402;2022-08-30T02:24:40;15.70;99.90
13229;DHT22;6680;53.220;10.402;2022-08-30T02:27:07;15.70;99.90
13229;DHT22;6680;53.220;10.402;2022-08-30T02:29:34;15.60;99.90
13229;DHT22;6680;53.220;10.402;2022-08-30T02:32:02;15.60;99.90
13229;DHT22;6680;53.220;10.402;2022-08-30T02:34:29;15.40;99.90
13229;DHT22;6680;53.220;10.402;2022-08-30T02:36:56;15.60;99.90
13229;DHT22;6680;53.220;10.402;2022-08-30T02:39:23;15.60;99.90
13229;DHT22;6680;53.220;10.402;2022-08-30T02:41:49;15.60;99.90
13229;DHT22;6680;53.220;10.402;2022-08-30T02:44:16;15.50;99.90
13229;DHT22;6680;53.220;10.402;2022-08-30T02:46:43;15.60;99.90
13229;DHT22;6680;53.220;10.402;2022-08-30T02:49:12;15.70;99.90
13229;DHT22;6680;53.220;10.402;2022-08-30T02:51:38;15.60;99.90
13229;DHT22;6680;53.220;10.402;2022-08-30T02:54:05;15.60;99.90
13229;DHT22;6680;53.220;10.402;2022-08-30T02:56:32;15.60;99.90
13229;DHT22;6680;53.220;10.402;2022-08-30T02:58:59;15.70;99.90
13229;DHT22;6680;53.220;10.402;2022-08-30T03:01:25;15.70;99.90
13229;DHT22;6680;53.220;10.402;2022-08-30T03:03:52;15.70;99.90
13229;DHT22;6680;53.220;10.402;2022-08-30T03:06:20;15.70;99.90
13229;DHT22;6680;53.220;10.402;2022-08-30T03:08:47;15.70;99.90
13229;DHT22;6680;53.220;10.402;2022-08-30T03:11:14;15.70;99.90
13229;DHT22;6680;53.220;10.402;2022-08-30T03:13:40;15.70;99.90
13229;DHT22;6680;53.220;10.402;2022-08-30T03:16:07;15.70;99.90
13229;DHT22;6680;53.220;10.402;2022-08-30T03:18:34;15.70;99.90
13229;DHT22;6680;53.220;10.402;2022-08-30T03:21:02;15.70;99.90
13229;DHT22;6680;53.220;10.402;2022-08-30T03:23:30;15.80;99.90
13229;DHT22;6680;53.220;10.402;2022-08-30T03:25:57;15.70;99.90
13229;DHT22;6680;53.220;10.402;2022-08-30T03:28:23;15.70;99.90
13229;DHT22;6680;53.220;10.402;2022-08-30T03:30:50;15.80;99.90
13229;DHT22;6680;53.220;10.402;2022-08-30T03:33:16;15.80;99.90
13229;DHT22;6680;53.220;10.402;2022-08-30T03:35:43;15.80;99.90
13229;DHT22;6680;53.220;10.402;2022-08-30T03:38:10;15.80;99.90
13229;DHT22;6680;53.220;10.402;2022-08-30T03:40:38;15.80;99.90
13229;DHT22;6680;53.220;10.402;2022-08-30T03:43:05;15.80;99.90
13229;DHT22;6680;53.220;10.402;2022-08-30T03:45:31;15.80;99.90
13229;DHT22;6680;53.220;10.402;2022-08-30T03:47:58;15.70;99.90
13229;DHT22;6680;53.220;10.402;2022-08-30T03:50:27;15.70;99.90
13229;DHT22;6680;53.220;10.402;2022-08-30T03:52:53;15.70;99.90
13229;DHT22;6680;53.220;10.402;2022-08-30T03:55:20;15.70;99.90
13229;DHT22;6680;53.220;10.402;2022-08-30T03:57:48;15.70;99.90
13229;DHT22;6680;53.220;10.402;2022-08-30T04:00:16;15.70;99.90
13229;DHT22;6680;53.220;10.402;2022-08-30T04:02:43;15.80;99.90
13229;DHT22;6680;53.220;10.402;2022-08-30T04:05:11;15.80;99.90
13229;DHT22;6680;53.220;10.402;2022-08-30T04:07:38;15.80;99.90
13229;DHT22;6680;53.220;10.402;2022-08-30T04:10:07;15.80;99.90
13229;DHT22;6680;53.220;10.402;2022-08-30T04:12:34;15.80;99.90
13229;DHT22;6680;53.220;10.402;2022-08-30T04:15:03;15.80;99.90
13229;DHT22;6680;53.220;10.402;2022-08-30T04:17:30;15.80;99.90
13229;DHT22;6680;53.220;10.402;2022-08-30T04:19:57;15.80;99.90
13229;DHT22;6680;53.220;10.402;2022-08-30T04:22:23;15.80;99.90
13229;DHT22;6680;53.220;10.402;2022-08-30T04:24:50;15.80;99.90
13229;DHT22;6680;53.220;10.402;2022-08-30T04:27:17;15.80;99.90
13229;DHT22;6680;53.220;10.402;2022-08-30T04:29:44;15.80;99.90
13229;DHT22;6680;53.220;10.402;2022-08-30T04:32:13;15.80;99.90
13229;DHT22;6680;53.220;10.402;2022-08-30T04:34:40;15.80;99.90
13229;DHT22;6680;53.220;10.402;2022-08-30T04:37:07;15.80;99.90
13229;DHT22;6680;53.220;10.402;2022-08-30T04:39:34;15.80;99.90
13229;DHT22;6680;53.220;10.402;2022-08-30T04:42:01;15.80;99.90
13229;DHT22;6680;53.220;10.402;2022-08-30T04:44:30;16.10;99.90
13229;DHT22;6680;53.220;10.402;2022-08-30T04:46:56;15.80;99.90
13229;DHT22;6680;53.220;10.402;2022-08-30T04:49:24;15.80;99.90
13229;DHT22;6680;53.220;10.402;2022-08-30T04:51:51;15.90;99.90
13229;DHT22;6680;53.220;10.402;2022-08-30T04:54:18;16.10;99.90
13229;DHT22;6680;53.220;10.402;2022-08-30T04:56:44;15.90;99.90
13229;DHT22;6680;53.220;10.402;2022-08-30T04:59:11;15.90;99.90
13229;DHT22;6680;53.220;10.402;2022-08-30T05:01:38;15.90;99.90
13229;DHT22;6680;53.220;10.402;2022-08-30T05:04:05;15.90;99.90
13229;DHT22;6680;53.220;10.402;2022-08-30T05:06:33;15.90;99.90
13229;DHT22;6680;53.220;10.402;2022-08-30T05:09:00;15.90;99.90
13229;DHT22;6680;53.220;10.402;2022-08-30T05:11:27;15.90;99.90
13229;DHT22;6680;53.220;10.402;2022-08-30T05:13:54;16.00;99.90
13229;DHT22;6680;53.220;10.402;2022-08-30T05:16:20;16.00;99.90
13229;DHT22;6680;53.220;10.402;2022-08-30T05:18:48;16.00;99.90
13229;DHT22;6680;53.220;10.402;2022-08-30T05:21:18;16.10;99.90
13229;DHT22;6680;53.220;10.402;2022-08-30T05:23:47;16.10;99.90
13229;DHT22;6680;53.220;10.402;2022-08-30T05:26:16;16.10;99.90
13229;DHT22;6680;53.220;10.402;2022-08-30T05:28:44;16.10;99.90
13229;DHT22;6680;53.220;10.402;2022-08-30T05:31:16;16.10;99.90
13229;DHT22;6680;53.220;10.402;2022-08-30T05:33:43;16.10;99.90
13229;DHT22;6680;53.220;10.402;2022-08-30T05:36:11;16.20;99.90
13229;DHT22;6680;53.220;10.402;2022-08-30T05:38:39;16.20;99.90
13229;DHT22;6680;53.220;10.402;2022-08-30T05:41:07;16.20;99.90
13229;DHT22;6680;53.220;10.402;2022-08-30T05:43:34;16.20;99.90
13229;DHT22;6680;53.220;10.402;2022-08-30T05:46:01;16.20;99.90
13229;DHT22;6680;53.220;10.402;2022-08-30T05:48:30;16.20;99.90
13229;DHT22;6680;53.220;10.402;2022-08-30T05:51:08;16.30;99.90
13229;DHT22;6680;53.220;10.402;2022-08-30T05:53:36;16.30;99.90
13229;DHT22;6680;53.220;10.402;2022-08-30T05:56:05;16.30;99.90
13229;DHT22;6680;53.220;10.402;2022-08-30T05:58:33;16.40;99.90
13229;DHT22;6680;53.220;10.402;2022-08-30T06:01:00;16.40;99.90
13229;DHT22;6680;53.220;10.402;2022-08-30T06:03:27;16.50;99.90
13229;DHT22;6680;53.220;10.402;2022-08-30T06:05:54;16.50;99.90
13229;DHT22;6680;53.220;10.402;2022-08-30T06:08:21;16.60;99.90
13229;DHT22;6680;53.220;10.402;2022-08-30T06:10:47;16.60;99.90
13229;DHT22;6680;53.220;10.402;2022-08-30T06:13:14;16.70;99.90
13229;DHT22;6680;53.220;10.402;2022-08-30T06:15:43;16.80;99.90
13229;DHT22;6680;53.220;10.402;2022-08-30T06:18:10;16.80;99.90
13229;DHT22;6680;53.220;10.402;2022-08-30T06:20:39;17.00;99.90
13229;DHT22;6680;53.220;10.402;2022-08-30T06:23:06;17.00;99.90
13229;DHT22;6680;53.220;10.402;2022-08-30T06:25:35;17.20;99.90
13229;DHT22;6680;53.220;10.402;2022-08-30T06:28:03;17.20;99.90
13229;DHT22;6680;53.220;10.402;2022-08-30T06:30:30;17.30;99.90
13229;DHT22;6680;53.220;10.402;2022-08-30T06:32:58;17.40;99.90
13229;DHT22;6680;53.220;10.402;2022-08-30T06:35:26;17.40;99.90
13229;DHT22;6680;53.220;10.402;2022-08-30T06:37:53;17.50;99.90
13229;DHT22;6680;53.220;10.402;2022-08-30T06:40:19;17.60;99.90
13229;DHT22;6680;53.220;10.402;2022-08-30T06:42:46;17.70;99.90
13229;DHT22;6680;53.220;10.402;2022-08-30T06:45:14;17.70;99.90
13229;DHT22;6680;53.220;10.402;2022-08-30T06:47:43;17.70;99.90
13229;DHT22;6680;53.220;10.402;2022-08-30T06:50:13;17.80;99.90
13229;DHT22;6680;53.220;10.402;2022-08-30T06:52:40;17.80;99.90
13229;DHT22;6680;53.220;10.402;2022-08-30T06:55:08;17.90;99.90
13229;DHT22;6680;53.220;10.402;2022-08-30T06:57:35;17.90;99.90
13229;DHT22;6680;53.220;10.402;2022-08-30T07:00:04;18.00;99.90
13229;DHT22;6680;53.220;10.402;2022-08-30T07:02:31;18.00;99.90
13229;DHT22;6680;53.220;10.402;2022-08-30T07:04:57;18.10;99.90
13229;DHT22;6680;53.220;10.402;2022-08-30T07:07:28;18.20;99.90
13229;DHT22;6680;53.220;10.402;2022-08-30T07:09:55;18.20;99.90
13229;DHT22;6680;53.220;10.402;2022-08-30T07:12:21;18.20;99.90
13229;DHT22;6680;53.220;10.402;2022-08-30T07:14:49;18.20;99.90
13229;DHT22;6680;53.220;10.402;2022-08-30T07:17:16;18.20;99.90
13229;DHT22;6680;53.220;10.402;2022-08-30T07:20:00;18.30;99.90
13229;DHT22;6680;53.220;10.402;2022-08-30T07:22:28;18.40;99.90
13229;DHT22;6680;53.220;10.402;2022-08-30T07:24:55;18.50;99.90
13229;DHT22;6680;53.220;10.402;2022-08-30T07:27:22;18.70;99.90
13229;DHT22;6680;53.220;10.402;2022-08-30T07:29:48;18.80;99.90
13229;DHT22;6680;53.220;10.402;2022-08-30T07:32:15;18.90;99.90
13229;DHT22;6680;53.220;10.402;2022-08-30T07:34:42;19.00;99.90
13229;DHT22;6680;53.220;10.402;2022-08-30T07:37:09;19.00;99.90
13229;DHT22;6680;53.220;10.402;2022-08-30T07:39:37;19.00;99.90
13229;DHT22;6680;53.220;10.402;2022-08-30T07:42:05;19.10;99.90
13229;DHT22;6680;53.220;10.402;2022-08-30T07:44:31;19.20;99.90
13229;DHT22;6680;53.220;10.402;2022-08-30T07:46:58;19.20;99.90
13229;DHT22;6680;53.220;10.402;2022-08-30T07:49:25;19.40;99.90
13229;DHT22;6680;53.220;10.402;2022-08-30T07:51:51;19.40;99.90
13229;DHT22;6680;53.220;10.402;2022-08-30T07:54:18;19.70;99.90
13229;DHT22;6680;53.220;10.402;2022-08-30T07:56:46;19.50;99.90
13229;DHT22;6680;53.220;10.402;2022-08-30T07:59:13;19.70;99.90
13229;DHT22;6680;53.220;10.402;2022-08-30T08:01:39;19.80;99.90
13229;DHT22;6680;53.220;10.402;2022-08-30T08:04:06;19.90;99.90
13229;DHT22;6680;53.220;10.402;2022-08-30T08:06:36;19.90;99.90
13229;DHT22;6680;53.220;10.402;2022-08-30T08:09:04;20.00;99.90
13229;DHT22;6680;53.220;10.402;2022-08-30T08:11:32;20.00;99.90
13229;DHT22;6680;53.220;10.402;2022-08-30T08:14:02;20.00;99.90
13229;DHT22;6680;53.220;10.402;2022-08-30T08:16:32;20.00;99.90
13229;DHT22;6680;53.220;10.402;2022-08-30T08:18:59;20.10;99.90
13229;DHT22;6680;53.220;10.402;2022-08-30T08:21:26;20.00;99.90
13229;DHT22;6680;53.220;10.402;2022-08-30T08:23:53;20.50;99.90
13229;DHT22;6680;53.220;10.402;2022-08-30T08:26:20;19.90;99.90
13229;DHT22;6680;53.220;10.402;2022-08-30T08:28:47;19.90;99.90
13229;DHT22;6680;53.220;10.402;2022-08-30T08:31:17;19.90;99.90
13229;DHT22;6680;53.220;10.402;2022-08-30T08:33:46;20.00;99.90
13229;DHT22;6680;53.220;10.402;2022-08-30T08:36:13;20.00;99.90
13229;DHT22;6680;53.220;10.402;2022-08-30T08:38:39;19.90;99.90
13229;DHT22;6680;53.220;10.402;2022-08-30T08:41:12;19.90;99.90
13229;DHT22;6680;53.220;10.402;2022-08-30T08:43:42;20.00;99.90
13229;DHT22;6680;53.220;10.402;2022-08-30T08:46:12;20.00;99.90
13229;DHT22;6680;53.220;10.402;2022-08-30T08:48:45;20.10;99.90
13229;DHT22;6680;53.220;10.402;2022-08-30T08:51:15;20.00;99.90
13229;DHT22;6680;53.220;10.402;2022-08-30T08:54:04;20.00;99.90
13229;DHT22;6680;53.220;10.402;2022-08-30T08:56:33;20.20;99.90
13229;DHT22;6680;53.220;10.402;2022-08-30T08:59:01;20.10;99.90
13229;DHT22;6680;53.220;10.402;2022-08-30T09:01:29;20.10;99.90
13229;DHT22;6680;53.220;10.402;2022-08-30T09:04:02;20.00;99.90
13229;DHT22;6680;53.220;10.402;2022-08-30T09:06:47;19.90;99.90
13229;DHT22;6680;53.220;10.402;2022-08-30T09:09:18;19.90;99.90
13229;DHT22;6680;53.220;10.402;2022-08-30T09:11:46;20.00;99.90
13229;DHT22;6680;53.220;10.402;2022-08-30T09:14:16;20.00;99.90
13229;DHT22;6680;53.220;10.402;2022-08-30T09:16:51;20.00;99.90
13229;DHT22;6680;53.220;10.402;2022-08-30T09:19:39;20.00;99.90
13229;DHT22;6680;53.220;10.402;2022-08-30T09:22:23;20.20;99.90
13229;DHT22;6680;53.220;10.402;2022-08-30T09:24:53;20.40;99.90
13229;DHT22;6680;53.220;10.402;2022-08-30T09:27:24;20.50;99.90
13229;DHT22;6680;53.220;10.402;2022-08-30T09:29:54;20.60;99.90
13229;DHT22;6680;53.220;10.402;2022-08-30T09:32:24;20.70;99.90
13229;DHT22;6680;53.220;10.402;2022-08-30T09:34:53;20.80;99.90
13229;DHT22;6680;53.220;10.402;2022-08-30T09:37:27;20.90;99.90
13229;DHT22;6680;53.220;10.402;2022-08-30T09:39:54;20.90;99.90
13229;DHT22;6680;53.220;10.402;2022-08-30T09:42:23;20.90;99.90
13229;DHT22;6680;53.220;10.402;2022-08-30T09:44:50;20.80;99.90
13229;DHT22;6680;53.220;10.402;2022-08-30T09:47:19;20.90;99.90
13229;DHT22;6680;53.220;10.402;2022-08-30T09:49:46;20.80;99.90
13229;DHT22;6680;53.220;10.402;2022-08-30T09:52:31;20.80;99.90
13229;DHT22;6680;53.220;10.402;2022-08-30T09:55:13;20.80;99.90
13229;DHT22;6680;53.220;10.402;2022-08-30T09:57:51;20.90;99.90
13229;DHT22;6680;53.220;10.402;2022-08-30T10:00:22;20.90;99.90
13229;DHT22;6680;53.220;10.402;2022-08-30T10:03:02;20.90;99.90
13229;DHT22;6680;53.220;10.402;2022-08-30T10:05:36;21.00;99.90
13229;DHT22;6680;53.220;10.402;2022-08-30T10:08:15;21.10;99.90
13229;DHT22;6680;53.220;10.402;2022-08-30T10:10:48;21.20;99.90
13229;DHT22;6680;53.220;10.402;2022-08-30T10:13:31;21.10;99.90
13229;DHT22;6680;53.220;10.402;2022-08-30T10:16:12;21.20;99.90
13229;DHT22;6680;53.220;10.402;2022-08-30T10:18:50;21.20;99.90
13229;DHT22;6680;53.220;10.402;2022-08-30T10:21:23;21.30;99.90
13229;DHT22;6680;53.220;10.402;2022-08-30T10:23:56;21.40;99.90
13229;DHT22;6680;53.220;10.402;2022-08-30T10:26:28;21.40;99.90
13229;DHT22;6680;53.220;10.402;2022-08-30T10:28:59;21.40;99.90
13229;DHT22;6680;53.220;10.402;2022-08-30T10:31:32;21.40;99.90
13229;DHT22;6680;53.220;10.402;2022-08-30T10:34:05;21.40;99.90
13229;DHT22;6680;53.220;10.402;2022-08-30T10:36:39;21.50;99.90
13229;DHT22;6680;53.220;10.402;2022-08-30T10:39:11;21.60;99.90
13229;DHT22;6680;53.220;10.402;2022-08-30T10:41:43;21.60;99.90
13229;DHT22;6680;53.220;10.402;2022-08-30T10:44:17;21.60;99.90
13229;DHT22;6680;53.220;10.402;2022-08-30T10:47:01;21.70;99.90
13229;DHT22;6680;53.220;10.402;2022-08-30T10:49:39;21.90;99.90
13229;DHT22;6680;53.220;10.402;2022-08-30T10:52:22;22.10;99.90
13229;DHT22;6680;53.220;10.402;2022-08-30T10:54:54;22.40;99.90
13229;DHT22;6680;53.220;10.402;2022-08-30T10:57:23;22.50;99.90
13229;DHT22;6680;53.220;10.402;2022-08-30T10:59:54;22.80;99.90
13229;DHT22;6680;53.220;10.402;2022-08-30T11:02:40;22.90;99.90
13229;DHT22;6680;53.220;10.402;2022-08-30T11:05:25;22.90;99.90
13229;DHT22;6680;53.220;10.402;2022-08-30T11:08:01;22.80;99.90
13229;DHT22;6680;53.220;10.402;2022-08-30T11:10:44;22.80;99.90
13229;DHT22;6680;53.220;10.402;2022-08-30T11:13:15;22.70;99.90
13229;DHT22;6680;53.220;10.402;2022-08-30T11:15:55;22.70;99.90
13229;DHT22;6680;53.220;10.402;2022-08-30T11:18:23;22.70;99.90
13229;DHT22;6680;53.220;10.402;2022-08-30T11:20:52;22.60;99.90
13229;DHT22;6680;53.220;10.402;2022-08-30T11:23:28;22.50;99.90
13229;DHT22;6680;53.220;10.402;2022-08-30T11:25:59;22.40;99.90
13229;DHT22;6680;53.220;10.402;2022-08-30T11:29:04;22.20;99.90
13229;DHT22;6680;53.220;10.402;2022-08-30T11:31:35;22.10;99.90
13229;DHT22;6680;53.220;10.402;2022-08-30T11:34:02;21.90;99.90
13229;DHT22;6680;53.220;10.402;2022-08-30T11:39:53;22.00;99.90
13229;DHT22;6680;53.220;10.402;2022-08-30T11:42:37;22.00;99.90
13229;DHT22;6680;53.220;10.402;2022-08-30T11:45:41;21.90;99.90
13229;DHT22;6680;53.220;10.402;2022-08-30T11:48:40;21.70;99.90
13229;DHT22;6680;53.220;10.402;2022-08-30T11:51:36;21.80;99.90
13229;DHT22;6680;53.220;10.402;2022-08-30T11:54:11;21.90;99.90
13229;DHT22;6680;53.220;10.402;2022-08-30T11:56:48;21.90;99.90
13229;DHT22;6680;53.220;10.402;2022-08-30T11:59:25;21.90;99.90
13229;DHT22;6680;53.220;10.402;2022-08-30T12:01:53;22.00;99.90
13229;DHT22;6680;53.220;10.402;2022-08-30T12:04:34;22.30;99.90
13229;DHT22;6680;53.220;10.402;2022-08-30T12:07:03;22.20;99.90
13229;DHT22;6680;53.220;10.402;2022-08-30T12:10:01;22.20;99.90
13229;DHT22;6680;53.220;10.402;2022-08-30T12:12:51;22.10;99.90
13229;DHT22;6680;53.220;10.402;2022-08-30T12:18:36;22.00;99.90
13229;DHT22;6680;53.220;10.402;2022-08-30T12:21:11;22.00;99.90
13229;DHT22;6680;53.220;10.402;2022-08-30T12:23:45;21.90;99.90
13229;DHT22;6680;53.220;10.402;2022-08-30T12:26:26;21.90;99.90
13229;DHT22;6680;53.220;10.402;2022-08-30T12:29:07;21.80;99.90
13229;DHT22;6680;53.220;10.402;2022-08-30T12:31:39;21.70;99.90
13229;DHT22;6680;53.220;10.402;2022-08-30T12:34:07;21.60;99.90
13229;DHT22;6680;53.220;10.402;2022-08-30T12:36:37;21.60;99.90
13229;DHT22;6680;53.220;10.402;2022-08-30T12:39:10;21.60;99.90
13229;DHT22;6680;53.220;10.402;2022-08-30T12:41:39;21.60;99.90
13229;DHT22;6680;53.220;10.402;2022-08-30T12:44:12;21.60;99.90
13229;DHT22;6680;53.220;10.402;2022-08-30T12:46:40;21.60;99.90
13229;DHT22;6680;53.220;10.402;2022-08-30T12:49:08;21.70;99.90
13229;DHT22;6680;53.220;10.402;2022-08-30T12:51:39;21.80;99.90
13229;DHT22;6680;53.220;10.402;2022-08-30T12:54:15;21.90;99.90
13229;DHT22;6680;53.220;10.402;2022-08-30T12:57:01;22.00;99.90
13229;DHT22;6680;53.220;10.402;2022-08-30T12:59:52;22.10;99.90
13229;DHT22;6680;53.220;10.402;2022-08-30T13:02:24;22.30;99.90
13229;DHT22;6680;53.220;10.402;2022-08-30T13:04:55;22.40;99.90
13229;DHT22;6680;53.220;10.402;2022-08-30T13:07:30;22.50;99.90
13229;DHT22;6680;53.220;10.402;2022-08-30T13:10:05;22.60;99.90
13229;DHT22;6680;53.220;10.402;2022-08-30T13:12:32;22.70;99.90
13229;DHT22;6680;53.220;10.402;2022-08-30T13:15:17;22.70;99.90
13229;DHT22;6680;53.220;10.402;2022-08-30T13:17:44;22.60;99.90
13229;DHT22;6680;53.220;10.402;2022-08-30T13:20:23;22.40;99.90
13229;DHT22;6680;53.220;10.402;2022-08-30T13:23:03;22.00;99.90
13229;DHT22;6680;53.220;10.402;2022-08-30T13:25:30;22.00;99.90
13229;DHT22;6680;53.220;10.402;2022-08-30T13:27:58;21.90;99.90
13229;DHT22;6680;53.220;10.402;2022-08-30T13:30:25;21.80;99.90
13229;DHT22;6680;53.220;10.402;2022-08-30T13:32:53;21.70;99.90
13229;DHT22;6680;53.220;10.402;2022-08-30T13:35:22;21.70;99.90
13229;DHT22;6680;53.220;10.402;2022-08-30T13:37:49;21.70;99.90
13229;DHT22;6680;53.220;10.402;2022-08-30T13:40:16;21.60;99.90
13229;DHT22;6680;53.220;10.402;2022-08-30T13:42:43;21.60;99.90
13229;DHT22;6680;53.220;10.402;2022-08-30T13:45:11;21.60;99.90
13229;DHT22;6680;53.220;10.402;2022-08-30T13:47:38;21.70;99.90
13229;DHT22;6680;53.220;10.402;2022-08-30T13:50:06;21.60;99.90
13229;DHT22;6680;53.220;10.402;2022-08-30T13:52:34;21.60;99.90
13229;DHT22;6680;53.220;10.402;2022-08-30T13:55:01;21.60;99.90
13229;DHT22;6680;53.220;10.402;2022-08-30T13:57:29;21.60;99.90
13229;DHT22;6680;53.220;10.402;2022-08-30T13:59:56;21.60;99.90
13229;DHT22;6680;53.220;10.402;2022-08-30T14:02:24;21.60;99.90
13229;DHT22;6680;53.220;10.402;2022-08-30T14:04:51;21.50;99.90
13229;DHT22;6680;53.220;10.402;2022-08-30T14:07:18;21.50;99.90
13229;DHT22;6680;53.220;10.402;2022-08-30T14:09:46;21.60;99.90
13229;DHT22;6680;53.220;10.402;2022-08-30T14:12:12;21.70;99.90
13229;DHT22;6680;53.220;10.402;2022-08-30T14:14:39;21.70;99.90
13229;DHT22;6680;53.220;10.402;2022-08-30T14:17:06;21.60;99.90
13229;DHT22;6680;53.220;10.402;2022-08-30T14:19:32;21.60;99.90
13229;DHT22;6680;53.220;10.402;2022-08-30T14:21:59;21.70;99.90
13229;DHT22;6680;53.220;10.402;2022-08-30T14:24:26;21.90;99.90
13229;DHT22;6680;53.220;10.402;2022-08-30T14:26:54;21.80;99.90
13229;DHT22;6680;53.220;10.402;2022-08-30T14:29:22;21.80;99.90
13229;DHT22;6680;53.220;10.402;2022-08-30T14:31:50;21.90;99.90
13229;DHT22;6680;53.220;10.402;2022-08-30T14:34:17;22.10;99.90
13229;DHT22;6680;53.220;10.402;2022-08-30T14:36:44;22.10;99.90
13229;DHT22;6680;53.220;10.402;2022-08-30T14:39:14;22.10;99.90
13229;DHT22;6680;53.220;10.402;2022-08-30T14:41:44;22.20;99.90
13229;DHT22;6680;53.220;10.402;2022-08-30T14:44:13;22.20;99.90
13229;DHT22;6680;53.220;10.402;2022-08-30T14:46:41;22.10;99.90
13229;DHT22;6680;53.220;10.402;2022-08-30T14:49:08;22.20;99.90
13229;DHT22;6680;53.220;10.402;2022-08-30T14:51:34;22.30;99.90
13229;DHT22;6680;53.220;10.402;2022-08-30T14:54:01;22.40;99.90
13229;DHT22;6680;53.220;10.402;2022-08-30T14:56:28;22.50;99.90
13229;DHT22;6680;53.220;10.402;2022-08-30T14:58:55;22.50;99.90
13229;DHT22;6680;53.220;10.402;2022-08-30T15:01:26;22.30;99.90
13229;DHT22;6680;53.220;10.402;2022-08-30T15:03:54;22.20;99.90
13229;DHT22;6680;53.220;10.402;2022-08-30T15:06:21;22.10;99.90
13229;DHT22;6680;53.220;10.402;2022-08-30T15:08:48;22.10;99.90
13229;DHT22;6680;53.220;10.402;2022-08-30T15:11:17;22.10;99.90
13229;DHT22;6680;53.220;10.402;2022-08-30T15:13:44;22.10;99.90
13229;DHT22;6680;53.220;10.402;2022-08-30T15:16:13;22.10;99.90
13229;DHT22;6680;53.220;10.402;2022-08-30T15:18:42;22.10;99.90
13229;DHT22;6680;53.220;10.402;2022-08-30T15:21:09;22.10;99.90
13229;DHT22;6680;53.220;10.402;2022-08-30T15:23:36;22.00;99.90
13229;DHT22;6680;53.220;10.402;2022-08-30T15:26:03;22.00;99.90
13229;DHT22;6680;53.220;10.402;2022-08-30T15:28:30;22.00;99.90
13229;DHT22;6680;53.220;10.402;2022-08-30T15:30:57;21.90;99.90
13229;DHT22;6680;53.220;10.402;2022-08-30T15:33:24;21.80;99.90
13229;DHT22;6680;53.220;10.402;2022-08-30T15:35:52;21.60;99.90
13229;DHT22;6680;53.220;10.402;2022-08-30T15:38:18;21.40;99.90
13229;DHT22;6680;53.220;10.402;2022-08-30T15:40:48;21.40;99.90
13229;DHT22;6680;53.220;10.402;2022-08-30T15:43:15;21.20;99.90
13229;DHT22;6680;53.220;10.402;2022-08-30T15:48:09;21.00;99.90
13229;DHT22;6680;53.220;10.402;2022-08-30T15:50:36;21.00;99.90
13229;DHT22;6680;53.220;10.402;2022-08-30T15:53:04;21.10;99.90
13229;DHT22;6680;53.220;10.402;2022-08-30T15:55:32;21.00;99.90